createdAt,value
2022-11-01T16:13:15.487Z,68.12
2022-11-01T16:15:41.773Z,68.10
2022-11-01T16:18:08.034Z,69.08
2022-11-01T16:20:34.440Z,68.06
2022-11-01T16:23:00.688Z,69.08
2022-11-01T16:25:27.665Z,68.18
2022-11-01T16:27:54.661Z,67.71
2022-11-01T16:30:20.846Z,68.02
2022-11-01T16:32:47.106Z,67.82
2022-11-01T16:35:13.357Z,68.08
2022-11-01T16:37:39.648Z,67.98
2022-11-01T16:40:06.243Z,68.09
2022-11-01T16:42:33.313Z,68.21
2022-11-01T16:44:59.571Z,67.19
2022-11-01T16:47:25.891Z,67.47
2022-11-01T16:49:52.221Z,66.67
2022-11-01T16:52:18.486Z,66.31
2022-11-01T16:54:44.844Z,66.51
2022-11-01T16:57:11.199Z,65.86
2022-11-01T16:59:37.962Z,65.83
2022-11-01T17:02:04.341Z,65.33
2022-11-01T17:04:30.742Z,64.74
2022-11-01T17:07:00.007Z,64.55
2022-11-01T17:09:27.238Z,64.91
2022-11-01T17:11:54.368Z,64.72
2022-11-01T17:14:21.082Z,64.57
2022-11-01T17:16:48.075Z,64.23
2022-11-01T17:19:14.454Z,63.41
2022-11-01T17:21:40.964Z,64.45
2022-11-01T17:24:07.225Z,64.19
2022-11-01T17:26:33.481Z,64.53
2022-11-01T17:28:59.749Z,64.93
2022-11-01T17:31:26.235Z,64.89
2022-11-01T17:33:52.487Z,64.76
2022-11-01T17:36:18.785Z,64.69
2022-11-01T17:38:45.032Z,64.78
2022-11-01T17:41:11.298Z,64.86
2022-11-01T17:43:37.636Z,65.04
2022-11-01T17:46:04.687Z,64.61
2022-11-01T17:48:31.040Z,64.75
2022-11-01T17:50:57.299Z,64.92
2022-11-01T17:53:23.580Z,64.89
2022-11-01T17:55:49.843Z,64.94
2022-11-01T18:01:07.391Z,64.97
2022-11-01T18:03:33.955Z,65.02
2022-11-01T18:06:00.276Z,65.02
2022-11-01T18:08:26.831Z,65.03
2022-11-01T18:10:53.079Z,65.23
2022-11-01T18:13:19.336Z,65.25
2022-11-01T18:15:45.741Z,65.27
2022-11-01T18:18:12.166Z,65.39
2022-11-01T18:20:38.770Z,65.43
2022-11-01T18:23:05.068Z,65.32
2022-11-01T18:25:31.390Z,65.49
2022-11-01T18:27:57.655Z,65.59
2022-11-01T18:31:33.461Z,65.32
2022-11-01T18:33:59.748Z,65.24
2022-11-01T18:55:34.550Z,66.29
2022-11-01T18:58:01.038Z,70.62
2022-11-01T19:00:27.563Z,73.07
2022-11-01T19:02:58.675Z,75.12
2022-11-01T19:05:25.802Z,77.16
2022-11-01T19:10:39.302Z,81.70
2022-11-01T19:13:05.709Z,82.50
2022-11-01T19:15:31.992Z,83.81
2022-11-01T19:17:58.301Z,84.10
2022-11-01T19:20:25.169Z,85.16
2022-11-01T19:22:51.442Z,85.26
2022-11-01T19:25:17.719Z,89.80
2022-11-01T19:27:44.005Z,88.41
2022-11-01T19:30:10.358Z,89.68
2022-11-01T19:32:36.619Z,89.46
2022-11-01T19:35:02.871Z,92.82
2022-11-01T19:37:31.814Z,93.25
2022-11-01T19:40:01.195Z,90.64
2022-11-01T19:42:27.522Z,91.10
2022-11-01T19:44:53.778Z,91.22
2022-11-01T19:47:20.055Z,89.87
2022-11-01T19:49:46.314Z,88.92
2022-11-01T19:52:13.132Z,89.66
2022-11-01T19:54:39.385Z,89.61
2022-11-01T19:57:05.643Z,89.40
2022-11-01T19:59:31.908Z,89.80
2022-11-01T20:01:58.922Z,90.67
2022-11-01T20:04:27.909Z,92.84
2022-11-01T20:06:55.129Z,94.25
2022-11-01T20:09:21.418Z,93.93
2022-11-01T20:11:47.670Z,92.60
2022-11-01T20:14:13.924Z,91.58
2022-11-01T20:16:40.251Z,94.19
2022-11-01T20:19:06.510Z,92.09
2022-11-01T20:21:33.275Z,91.92
2022-11-01T20:23:59.922Z,91.07
2022-11-01T20:26:26.205Z,92.98
2022-11-01T20:28:52.488Z,92.69
2022-11-01T20:34:11.886Z,98.36
2022-11-01T20:36:38.639Z,100.00
2022-11-01T20:39:04.920Z,100.00
2022-11-01T20:41:31.236Z,100.00
2022-11-01T20:43:57.481Z,100.00
2022-11-01T20:46:25.764Z,97.46
2022-11-01T20:48:52.009Z,95.53
2022-11-01T20:51:18.320Z,94.84
2022-11-01T20:53:44.572Z,95.97
2022-11-01T20:56:10.864Z,95.48
2022-11-01T20:58:43.890Z,94.71
2022-11-01T21:01:10.267Z,95.04
2022-11-01T21:03:36.569Z,99.76
2022-11-01T21:06:02.897Z,100.00
2022-11-01T21:08:30.364Z,100.00
2022-11-01T21:10:57.391Z,98.30
2022-11-01T21:13:23.721Z,96.53
2022-11-01T21:15:49.989Z,99.71
2022-11-01T21:18:17.485Z,96.80
2022-11-01T21:20:43.742Z,94.30
2022-11-01T21:23:10.069Z,96.34
2022-11-01T21:25:36.317Z,96.76
2022-11-01T21:28:02.782Z,100.00
2022-11-01T21:30:29.275Z,97.91
2022-11-01T21:32:55.558Z,97.96
2022-11-01T21:35:21.818Z,96.07
2022-11-01T21:37:48.234Z,94.06
2022-11-01T21:40:14.785Z,96.88
2022-11-01T21:42:41.153Z,94.75
2022-11-01T21:45:07.426Z,94.84
2022-11-01T21:47:36.757Z,95.62
2022-11-01T21:50:03.006Z,95.66
2022-11-01T21:52:29.604Z,95.47
2022-11-01T21:54:55.977Z,99.05
2022-11-01T21:57:22.238Z,100.00
2022-11-01T21:59:48.509Z,100.00
2022-11-01T22:02:15.088Z,100.00
2022-11-01T22:04:44.744Z,100.00
2022-11-01T22:07:11.061Z,97.77
2022-11-01T22:09:37.877Z,95.91
2022-11-01T22:12:04.190Z,94.80
2022-11-01T22:14:30.493Z,97.93
2022-11-01T22:16:56.899Z,97.14
2022-11-01T22:19:23.258Z,96.89
2022-11-01T22:21:49.612Z,97.96
2022-11-01T22:24:15.931Z,95.31
2022-11-01T22:26:42.199Z,93.59
2022-11-01T22:29:08.525Z,93.13
2022-11-01T22:31:34.783Z,95.59
2022-11-01T22:34:01.028Z,93.70
2022-11-01T22:36:27.309Z,95.89
2022-11-01T22:38:53.562Z,96.13
2022-11-01T22:41:19.808Z,99.30
2022-11-01T22:43:46.201Z,97.10
2022-11-01T22:46:12.448Z,100.00
2022-11-01T22:48:38.695Z,97.54
2022-11-01T22:51:04.962Z,99.11
2022-11-01T22:53:31.213Z,97.93
2022-11-01T22:55:57.646Z,96.34
2022-11-01T22:58:23.901Z,98.36
2022-11-01T23:00:50.361Z,98.25
2022-11-01T23:03:16.600Z,97.91
2022-11-01T23:05:43.318Z,97.73
2022-11-01T23:08:09.570Z,96.99
2022-11-01T23:10:35.850Z,97.39
2022-11-01T23:13:20.577Z,100.00
2022-11-01T23:15:46.868Z,97.95
2022-11-01T23:18:13.117Z,96.64
2022-11-01T23:20:40.073Z,97.65
2022-11-01T23:23:06.738Z,97.42
2022-11-01T23:25:33.639Z,96.71
2022-11-01T23:27:59.898Z,98.36
2022-11-01T23:30:26.316Z,100.00
2022-11-01T23:32:52.600Z,100.00
2022-11-01T23:35:18.912Z,98.14
2022-11-01T23:37:45.212Z,100.00
2022-11-01T23:40:11.480Z,100.00
2022-11-01T23:42:37.737Z,100.00
2022-11-01T23:45:06.164Z,100.00
2022-11-01T23:47:33.397Z,100.00
2022-11-01T23:49:59.649Z,100.00
2022-11-01T23:52:25.910Z,100.00
2022-11-01T23:54:52.161Z,100.00
2022-11-01T23:57:18.418Z,100.00
2022-11-01T23:59:44.672Z,100.00
